Evans, Iowa
Current Conditions -  °F | °C
As of 12:55 AM on Friday 28 Nov 2014 (Local Time) from KOOA Reporting Station
Scattered Clouds Scattered Clouds  
Wind Chill:   Ceiling: Unl
Heat Index: 13°   Visibility: 10mi
Dew Point:   Wind: 10mph
Humidity: 77%   Direction: 140°SE
Pressure: 30.28"   Gusts: NA
Location:  41.3158°N, 92.6258°W
Report Text: KOOA 280655Z AUTO 14009KT 10SM SCT120 M10/M14 A3028 RMK AO2 T11051138
Loading
Personal Weather Stations






























Interactive Weather Map New forecast layout! Learn more

10-Day Weather Forecast

Advertisements
Track Severe Weather on mobile